createdAt,value
2019-05-09T00:00:14.618Z,83.50
2019-05-09T00:00:53.376Z,83.50
2019-05-09T00:01:33.575Z,83.60
2019-05-09T00:02:14.039Z,83.70
2019-05-09T00:02:53.892Z,83.90
2019-05-09T00:03:30.419Z,84.10
2019-05-09T00:04:08.018Z,84.30
2019-05-09T00:04:45.392Z,84.60
2019-05-09T00:05:25.315Z,84.90
2019-05-09T00:06:01.756Z,85.20
2019-05-09T00:06:39.341Z,85.40
2019-05-09T00:07:16.508Z,85.60
2019-05-09T00:07:53.678Z,86.70
2019-05-09T00:08:30.857Z,86.20
2019-05-09T00:09:08.154Z,86.10
2019-05-09T00:09:45.322Z,86.30
2019-05-09T00:10:38.045Z,86.30
2019-05-09T00:11:03.710Z,86.70
2019-05-09T00:11:43.977Z,87.00
2019-05-09T00:12:23.295Z,87.30
2019-05-09T00:13:00.319Z,87.30
2019-05-09T00:13:38.945Z,87.60
2019-05-09T00:14:16.805Z,87.40
2019-05-09T00:14:54.119Z,87.50
2019-05-09T00:15:33.249Z,87.60
2019-05-09T00:16:10.594Z,87.50
2019-05-09T00:16:47.821Z,87.30
2019-05-09T00:17:25.401Z,87.50
2019-05-09T00:18:03.876Z,87.50
2019-05-09T00:18:44.081Z,87.30
2019-05-09T00:19:20.980Z,87.50
2019-05-09T00:20:03.511Z,87.60
2019-05-09T00:20:50.646Z,87.50
2019-05-09T00:21:33.254Z,87.40
2019-05-09T00:22:10.577Z,87.40
2019-05-09T00:22:48.017Z,87.30
2019-05-09T00:23:26.807Z,87.90
2019-05-09T00:24:03.983Z,87.60
2019-05-09T00:24:41.509Z,87.60
2019-05-09T00:25:18.721Z,87.50
2019-05-09T00:25:56.507Z,87.50
2019-05-09T00:26:34.085Z,87.70
2019-05-09T00:27:13.990Z,87.80
2019-05-09T00:27:50.549Z,87.60
2019-05-09T00:28:32.850Z,87.70
2019-05-09T00:29:14.198Z,87.60
2019-05-09T00:29:53.674Z,87.60
2019-05-09T00:30:50.797Z,87.70
2019-05-09T00:31:43.965Z,87.80
2019-05-09T00:32:40.241Z,87.90
2019-05-09T00:33:19.197Z,88.00
2019-05-09T00:33:59.207Z,88.10
2019-05-09T00:34:53.227Z,88.10
2019-05-09T00:35:36.579Z,88.20
2019-05-09T00:36:14.161Z,88.20
2019-05-09T00:36:51.365Z,88.20
2019-05-09T00:37:46.667Z,88.30
2019-05-09T00:38:25.516Z,88.30
2019-05-09T00:39:03.986Z,88.40
2019-05-09T00:39:43.275Z,88.50
2019-05-09T00:40:20.541Z,88.50
2019-05-09T00:40:59.047Z,88.60
2019-05-09T00:41:39.690Z,88.60
2019-05-09T00:42:17.712Z,88.60
2019-05-09T00:42:55.363Z,89.10
2019-05-09T00:43:35.457Z,88.60
2019-05-09T00:44:19.674Z,88.40
2019-05-09T00:44:59.168Z,88.50
2019-05-09T00:46:04.097Z,88.50
2019-05-09T00:46:53.529Z,88.60
2019-05-09T00:47:32.915Z,88.40
2019-05-09T00:48:11.267Z,88.50
2019-05-09T00:49:15.991Z,88.50
2019-05-09T00:49:54.210Z,88.50
2019-05-09T00:50:34.010Z,88.70
2019-05-09T00:51:10.423Z,88.80
2019-05-09T00:51:47.834Z,88.80
2019-05-09T00:52:25.429Z,88.90
2019-05-09T00:53:03.164Z,89.30
2019-05-09T00:53:40.088Z,89.10
2019-05-09T00:54:19.823Z,88.80
2019-05-09T00:54:57.193Z,88.80
2019-05-09T00:55:34.359Z,88.90
2019-05-09T00:56:13.424Z,89.00
2019-05-09T00:56:50.429Z,89.00
2019-05-09T00:57:37.041Z,89.00
2019-05-09T00:58:14.737Z,89.00
2019-05-09T00:58:55.573Z,89.10
2019-05-09T00:59:33.353Z,89.20
2019-05-09T01:00:14.750Z,89.10
2019-05-09T01:00:53.312Z,89.30
2019-05-09T01:01:30.705Z,89.30
2019-05-09T01:02:08.421Z,89.40
2019-05-09T01:02:47.097Z,90.00
2019-05-09T01:03:24.557Z,89.90
2019-05-09T01:04:04.066Z,90.10
2019-05-09T01:04:41.078Z,90.20
2019-05-09T01:05:18.766Z,90.40
2019-05-09T01:05:56.459Z,90.60
2019-05-09T01:06:34.232Z,90.50
2019-05-09T01:07:13.893Z,90.70
2019-05-09T01:07:50.857Z,90.80
2019-05-09T01:08:28.205Z,91.00
2019-05-09T01:09:07.453Z,91.20
2019-05-09T01:09:44.018Z,91.20
2019-05-09T01:10:23.517Z,91.60
2019-05-09T01:11:09.347Z,92.00
2019-05-09T01:11:39.506Z,91.70
2019-05-09T01:12:16.267Z,91.80
2019-05-09T01:12:54.251Z,92.10
2019-05-09T01:13:33.893Z,92.20
2019-05-09T01:14:10.549Z,91.90
2019-05-09T01:14:50.281Z,92.10
2019-05-09T01:15:27.579Z,92.30
2019-05-09T01:16:05.279Z,92.50
2019-05-09T01:16:44.151Z,92.60
2019-05-09T01:17:20.919Z,92.70
2019-05-09T01:17:58.575Z,92.70
2019-05-09T01:18:36.050Z,92.70
2019-05-09T01:19:14.163Z,92.90
2019-05-09T01:19:53.883Z,93.10
2019-05-09T01:20:33.196Z,93.10
2019-05-09T01:21:10.365Z,93.20
2019-05-09T01:21:49.575Z,93.50
2019-05-09T01:22:27.067Z,93.50
2019-05-09T01:23:04.577Z,93.50
2019-05-09T01:23:43.825Z,93.20
2019-05-09T01:24:23.286Z,93.40
2019-05-09T01:25:00.276Z,93.50
2019-05-09T01:25:37.741Z,93.50
2019-05-09T01:26:15.009Z,93.50
2019-05-09T01:26:54.197Z,93.60
2019-05-09T01:27:33.818Z,93.60
2019-05-09T01:28:10.726Z,93.80
2019-05-09T01:28:48.433Z,93.50
2019-05-09T01:29:25.953Z,93.90
2019-05-09T01:30:04.508Z,93.90
2019-05-09T01:30:45.381Z,93.90
2019-05-09T01:31:24.086Z,94.00
2019-05-09T01:32:03.638Z,94.00
2019-05-09T01:33:00.613Z,94.20
2019-05-09T01:33:44.049Z,94.40
2019-05-09T01:34:24.486Z,94.30
2019-05-09T01:35:03.696Z,94.40
2019-05-09T01:35:40.397Z,94.30
2019-05-09T01:36:18.001Z,94.30
2019-05-09T01:37:04.839Z,94.40
2019-05-09T01:37:43.370Z,94.50
2019-05-09T01:38:20.567Z,94.60
2019-05-09T01:38:57.709Z,94.60
2019-05-09T01:39:36.818Z,94.70
2019-05-09T01:40:14.085Z,94.70
2019-05-09T01:40:53.286Z,94.60
2019-05-09T01:41:33.929Z,94.60
2019-05-09T01:42:10.097Z,94.70
2019-05-09T01:42:47.277Z,94.80
2019-05-09T01:43:25.036Z,94.60
2019-05-09T01:44:04.079Z,94.70
2019-05-09T01:44:41.451Z,94.60
2019-05-09T01:45:23.596Z,94.60
2019-05-09T01:46:00.610Z,94.60
2019-05-09T01:46:39.060Z,94.80
2019-05-09T01:47:35.435Z,94.90
2019-05-09T01:48:13.978Z,95.00
2019-05-09T01:48:51.175Z,94.90
2019-05-09T01:49:28.685Z,94.90
2019-05-09T01:50:05.853Z,94.90
2019-05-09T01:50:43.437Z,94.90
2019-05-09T01:51:24.107Z,94.90
2019-05-09T01:52:03.336Z,94.90
2019-05-09T01:52:41.203Z,95.00
2019-05-09T01:53:23.904Z,95.10
2019-05-09T01:54:03.667Z,95.20
2019-05-09T01:54:43.569Z,95.30
2019-05-09T01:55:24.728Z,95.30
2019-05-09T01:56:03.706Z,95.10
2019-05-09T01:56:43.075Z,95.30
2019-05-09T01:57:20.657Z,95.30
2019-05-09T01:57:57.824Z,95.30
2019-05-09T01:58:35.251Z,95.30
2019-05-09T01:59:13.670Z,95.20
2019-05-09T01:59:53.134Z,95.30
2019-05-09T02:00:30.472Z,95.40
2019-05-09T02:01:09.338Z,95.50
2019-05-09T02:01:47.278Z,95.60
2019-05-09T02:02:24.927Z,95.70
2019-05-09T02:03:03.297Z,95.60
2019-05-09T02:03:44.263Z,95.70
2019-05-09T02:04:21.525Z,95.80
2019-05-09T02:04:59.326Z,96.10
2019-05-09T02:05:39.292Z,95.80
2019-05-09T02:06:19.993Z,95.90
2019-05-09T02:06:57.882Z,95.80
2019-05-09T02:07:35.404Z,95.90
2019-05-09T02:08:14.232Z,96.00
2019-05-09T02:08:54.254Z,95.90
2019-05-09T02:09:31.142Z,96.20
2019-05-09T02:10:09.026Z,96.00
2019-05-09T02:10:46.230Z,96.00
2019-05-09T02:11:24.003Z,95.90
2019-05-09T02:12:03.796Z,95.90
2019-05-09T02:12:43.017Z,96.00
2019-05-09T02:13:22.903Z,96.00
2019-05-09T02:14:00.298Z,96.00
2019-05-09T02:14:43.919Z,96.10
2019-05-09T02:15:39.099Z,96.10
2019-05-09T02:16:34.297Z,96.10
2019-05-09T02:17:23.127Z,96.20
2019-05-09T02:18:06.886Z,96.20
2019-05-09T02:18:53.349Z,96.20
2019-05-09T02:19:33.206Z,96.20
2019-05-09T02:20:10.562Z,96.30
2019-05-09T02:20:48.266Z,96.30
2019-05-09T02:21:26.640Z,96.30
2019-05-09T02:22:07.826Z,96.30
2019-05-09T02:22:45.619Z,96.30
2019-05-09T02:23:23.393Z,96.40
2019-05-09T02:24:03.088Z,96.80
2019-05-09T02:24:40.521Z,96.60
2019-05-09T02:25:18.278Z,96.50
2019-05-09T02:25:56.125Z,96.70
2019-05-09T02:26:33.654Z,96.70
2019-05-09T02:27:13.134Z,96.80
2019-05-09T02:27:49.745Z,96.80
2019-05-09T02:28:27.267Z,96.80
2019-05-09T02:29:04.891Z,96.80
2019-05-09T02:29:43.819Z,96.70
2019-05-09T02:30:25.395Z,96.70
2019-05-09T02:31:05.161Z,96.80
2019-05-09T02:31:44.598Z,97.00
2019-05-09T02:32:23.732Z,97.00
2019-05-09T02:33:00.357Z,97.00
2019-05-09T02:33:37.584Z,96.90
2019-05-09T02:34:15.359Z,97.00
2019-05-09T02:34:54.803Z,96.90
2019-05-09T02:35:39.639Z,96.90
2019-05-09T02:36:11.694Z,97.00
2019-05-09T02:36:49.622Z,97.10
2019-05-09T02:37:28.760Z,97.20
2019-05-09T02:38:09.404Z,97.20
2019-05-09T02:38:48.466Z,97.20
2019-05-09T02:39:24.032Z,97.10
2019-05-09T02:40:01.503Z,97.40
2019-05-09T02:40:39.455Z,97.60
2019-05-09T02:41:19.314Z,97.80
2019-05-09T02:42:04.949Z,97.90
2019-05-09T02:42:39.338Z,97.90
2019-05-09T02:43:14.425Z,98.30
2019-05-09T02:43:51.998Z,98.30
2019-05-09T02:44:29.818Z,98.50
2019-05-09T02:45:08.448Z,99.30
2019-05-09T02:45:53.382Z,99.60
2019-05-09T02:46:40.040Z,99.90
2019-05-09T02:47:21.874Z,99.90
2019-05-09T02:48:02.047Z,99.90
2019-05-09T02:48:38.798Z,99.90
2019-05-09T02:49:18.911Z,99.90
2019-05-09T02:49:55.386Z,99.90
2019-05-09T02:50:34.443Z,99.90
2019-05-09T02:51:12.378Z,99.90
2019-05-09T02:51:49.789Z,99.90
2019-05-09T02:52:28.679Z,99.90
2019-05-09T02:53:08.121Z,99.90
2019-05-09T02:53:44.758Z,99.90
2019-05-09T02:54:22.513Z,99.90
2019-05-09T02:55:00.077Z,99.90
2019-05-09T02:55:38.744Z,99.90
2019-05-09T02:56:18.794Z,99.90
2019-05-09T02:56:58.031Z,99.90
2019-05-09T02:57:37.453Z,99.90
2019-05-09T02:58:20.421Z,99.90
2019-05-09T02:59:11.556Z,99.90
2019-05-09T03:00:09.346Z,99.90
2019-05-09T03:01:08.210Z,99.90
2019-05-09T03:02:01.339Z,99.90
2019-05-09T03:02:59.602Z,99.90
2019-05-09T03:03:39.299Z,99.90
2019-05-09T03:04:18.891Z,99.90
2019-05-09T03:04:58.195Z,99.90
2019-05-09T03:05:38.302Z,99.90
2019-05-09T03:06:15.390Z,99.90
2019-05-09T03:06:53.748Z,99.90
2019-05-09T03:07:48.815Z,99.90
2019-05-09T03:08:29.717Z,99.90
2019-05-09T03:09:08.876Z,99.90
2019-05-09T03:09:48.159Z,99.90
2019-05-09T03:10:25.395Z,99.90
2019-05-09T03:11:03.282Z,99.90
2019-05-09T03:11:40.737Z,99.90
2019-05-09T03:12:30.998Z,99.90
2019-05-09T03:12:59.368Z,99.90
2019-05-09T03:13:39.475Z,99.90
2019-05-09T03:14:15.629Z,99.90
2019-05-09T03:14:54.345Z,99.90
2019-05-09T03:15:31.231Z,99.90
2019-05-09T03:16:12.451Z,99.90
2019-05-09T03:16:50.195Z,99.90
2019-05-09T03:17:28.137Z,99.90
2019-05-09T03:18:08.773Z,99.90
2019-05-09T03:18:44.352Z,99.90
2019-05-09T03:19:22.113Z,99.90
2019-05-09T03:20:00.631Z,99.90
2019-05-09T03:20:49.351Z,99.90
2019-05-09T03:21:39.007Z,99.90
2019-05-09T03:22:18.883Z,99.90
2019-05-09T03:22:58.904Z,99.90
2019-05-09T03:23:38.668Z,99.90
2019-05-09T03:24:14.968Z,99.90
2019-05-09T03:24:52.706Z,99.90
2019-05-09T03:25:30.203Z,99.90
2019-05-09T03:26:09.254Z,99.90
2019-05-09T03:26:50.453Z,99.90
2019-05-09T03:27:30.095Z,99.90
2019-05-09T03:28:13.513Z,99.90
2019-05-09T03:29:00.208Z,99.90
2019-05-09T03:29:43.460Z,99.90
2019-05-09T03:30:24.751Z,99.90
2019-05-09T03:31:03.897Z,99.90
2019-05-09T03:31:41.841Z,99.90
2019-05-09T03:32:19.949Z,99.90
2019-05-09T03:32:59.710Z,99.90
2019-05-09T03:33:40.371Z,99.90
2019-05-09T03:34:19.254Z,99.90
2019-05-09T03:34:54.807Z,99.90
2019-05-09T03:35:32.436Z,99.90
2019-05-09T03:36:09.882Z,99.90
2019-05-09T03:36:47.733Z,99.90
2019-05-09T03:37:27.827Z,99.90
2019-05-09T03:38:08.588Z,99.90
2019-05-09T03:38:47.568Z,99.90
2019-05-09T03:39:27.033Z,99.90
2019-05-09T03:40:05.344Z,99.90
2019-05-09T03:40:43.120Z,99.90
2019-05-09T03:41:23.073Z,99.90
2019-05-09T03:42:00.627Z,99.90
2019-05-09T03:42:43.388Z,99.90
2019-05-09T03:43:18.438Z,99.90
2019-05-09T03:43:58.349Z,99.90
2019-05-09T03:44:34.758Z,99.90
2019-05-09T03:45:13.896Z,99.90
2019-05-09T03:45:58.492Z,99.90
2019-05-09T03:46:47.541Z,99.90
2019-05-09T03:47:40.456Z,99.90
2019-05-09T03:48:24.844Z,99.90
2019-05-09T03:49:02.760Z,99.90
2019-05-09T03:49:39.853Z,99.90
2019-05-09T03:50:18.561Z,99.90
2019-05-09T03:50:57.613Z,99.90
2019-05-09T03:51:37.936Z,99.90
2019-05-09T03:52:17.672Z,99.90
2019-05-09T03:52:54.361Z,99.90
2019-05-09T03:53:31.843Z,99.90
2019-05-09T03:54:11.899Z,99.90
2019-05-09T03:54:49.363Z,99.90
2019-05-09T03:55:29.974Z,99.90
2019-05-09T03:56:09.440Z,99.90
2019-05-09T03:56:53.372Z,99.90
2019-05-09T03:57:32.172Z,99.90
2019-05-09T03:58:15.104Z,99.90
2019-05-09T03:58:52.743Z,99.90
2019-05-09T03:59:30.194Z,99.90
2019-05-09T04:00:08.369Z,99.90
2019-05-09T04:00:47.928Z,99.90
2019-05-09T04:01:28.083Z,99.90
2019-05-09T04:02:09.897Z,99.90
2019-05-09T04:02:47.441Z,99.90
2019-05-09T04:03:24.742Z,99.90
2019-05-09T04:04:02.198Z,99.90
2019-05-09T04:04:39.528Z,99.90
2019-05-09T04:05:18.074Z,99.90
2019-05-09T04:05:59.928Z,99.90
2019-05-09T04:06:34.652Z,99.90
2019-05-09T04:07:13.246Z,99.90
2019-05-09T04:07:49.958Z,99.90
2019-05-09T04:08:28.206Z,99.90
2019-05-09T04:09:08.080Z,99.90
2019-05-09T04:09:47.854Z,99.90
2019-05-09T04:10:24.506Z,99.90
2019-05-09T04:11:02.989Z,99.90
2019-05-09T04:11:40.748Z,99.90
2019-05-09T04:12:18.554Z,99.90
2019-05-09T04:12:59.337Z,99.90
2019-05-09T04:13:39.947Z,99.90
2019-05-09T04:14:21.598Z,99.90
2019-05-09T04:14:59.498Z,99.90
2019-05-09T04:15:37.947Z,99.90
2019-05-09T04:16:18.840Z,99.90
2019-05-09T04:17:14.046Z,99.90
2019-05-09T04:17:53.368Z,99.90
2019-05-09T04:18:30.486Z,99.90
2019-05-09T04:19:27.597Z,99.90
2019-05-09T04:20:05.498Z,99.90
2019-05-09T04:20:44.178Z,99.90
2019-05-09T04:21:21.344Z,99.90
2019-05-09T04:22:02.114Z,99.90
2019-05-09T04:22:59.281Z,99.90
2019-05-09T04:23:37.880Z,99.90
2019-05-09T04:24:14.807Z,99.90
2019-05-09T04:24:53.104Z,99.90
2019-05-09T04:25:33.906Z,99.90
2019-05-09T04:26:32.782Z,99.90
2019-05-09T04:27:17.895Z,99.90
2019-05-09T04:27:55.710Z,99.90
2019-05-09T04:28:32.901Z,99.90
2019-05-09T04:29:09.718Z,99.90
2019-05-09T04:29:48.475Z,99.90
2019-05-09T04:30:27.446Z,99.90
2019-05-09T04:31:07.257Z,99.90
2019-05-09T04:31:43.936Z,99.90
2019-05-09T04:32:21.740Z,99.90
2019-05-09T04:32:58.888Z,99.90
2019-05-09T04:33:38.471Z,99.90
2019-05-09T04:34:18.118Z,99.90
2019-05-09T04:34:55.321Z,99.90
2019-05-09T04:35:33.174Z,99.90
2019-05-09T04:36:10.788Z,99.90
2019-05-09T04:36:48.476Z,99.90
2019-05-09T04:37:25.742Z,99.90
2019-05-09T04:38:03.324Z,99.90
2019-05-09T04:38:40.827Z,99.90
2019-05-09T04:39:23.651Z,99.90
2019-05-09T04:40:03.335Z,99.90
2019-05-09T04:40:44.932Z,99.90
2019-05-09T04:41:23.999Z,99.90
2019-05-09T04:42:05.208Z,99.90
2019-05-09T04:42:42.957Z,99.90
2019-05-09T04:43:26.915Z,99.90
2019-05-09T04:43:58.424Z,99.90
2019-05-09T04:44:44.055Z,99.90
2019-05-09T04:45:41.757Z,99.90
2019-05-09T04:46:20.781Z,99.90
2019-05-09T04:46:59.867Z,99.90
2019-05-09T04:47:41.455Z,99.90
2019-05-09T04:48:31.612Z,99.90
2019-05-09T04:49:11.774Z,99.90
2019-05-09T04:49:48.900Z,99.90
2019-05-09T04:50:28.850Z,99.90
2019-05-09T04:51:08.453Z,99.90
2019-05-09T04:51:47.949Z,99.90
2019-05-09T04:52:27.815Z,99.90
2019-05-09T04:53:05.060Z,99.90
2019-05-09T04:53:42.913Z,99.90
2019-05-09T04:54:21.669Z,99.90
2019-05-09T04:54:58.768Z,99.90
2019-05-09T04:55:37.690Z,99.90
2019-05-09T04:56:25.004Z,99.90
2019-05-09T04:57:02.475Z,99.90
2019-05-09T04:57:39.836Z,99.90
2019-05-09T04:58:19.169Z,99.90
2019-05-09T04:58:58.315Z,99.90
2019-05-09T04:59:38.596Z,99.90
2019-05-09T05:00:20.237Z,99.90
2019-05-09T05:01:22.639Z,99.90
2019-05-09T05:02:21.518Z,99.90
2019-05-09T05:02:58.890Z,99.90
2019-05-09T05:03:37.599Z,99.90
2019-05-09T05:04:15.155Z,99.90
2019-05-09T05:04:52.906Z,99.90
2019-05-09T05:05:29.868Z,99.90
2019-05-09T05:06:07.671Z,99.90
2019-05-09T05:06:47.612Z,99.90
2019-05-09T05:07:23.744Z,99.90
2019-05-09T05:08:01.377Z,99.90
2019-05-09T05:08:38.779Z,99.90
2019-05-09T05:09:20.300Z,99.90
2019-05-09T05:09:57.674Z,99.90
2019-05-09T05:10:37.250Z,99.90
2019-05-09T05:11:14.615Z,99.90
2019-05-09T05:11:52.040Z,99.90
2019-05-09T05:12:29.697Z,99.90
2019-05-09T05:13:07.774Z,99.90
2019-05-09T05:13:45.233Z,99.90
2019-05-09T05:14:22.032Z,99.90
2019-05-09T05:14:59.837Z,99.90
2019-05-09T05:15:40.237Z,99.90
2019-05-09T05:16:18.943Z,99.90
2019-05-09T05:17:06.324Z,99.90
2019-05-09T05:17:37.778Z,99.90
2019-05-09T05:18:14.681Z,99.90
2019-05-09T05:18:52.925Z,99.90
2019-05-09T05:19:31.460Z,99.90
2019-05-09T05:20:18.416Z,99.90
2019-05-09T05:20:57.451Z,99.90
2019-05-09T05:21:37.799Z,99.90
2019-05-09T05:22:24.008Z,99.90
2019-05-09T05:23:19.701Z,99.90
2019-05-09T05:24:08.552Z,99.90
2019-05-09T05:24:49.207Z,99.90
2019-05-09T05:25:27.899Z,99.90
2019-05-09T05:26:05.135Z,99.90
2019-05-09T05:26:41.949Z,99.90
2019-05-09T05:27:19.425Z,99.90
2019-05-09T05:27:58.111Z,99.90
2019-05-09T05:28:38.307Z,99.90
2019-05-09T05:29:17.720Z,99.90
2019-05-09T05:29:58.460Z,99.90
2019-05-09T05:30:37.383Z,99.90
2019-05-09T05:31:15.050Z,99.90
2019-05-09T05:31:53.151Z,99.90
2019-05-09T05:32:52.227Z,99.90
2019-05-09T05:33:53.751Z,99.90
2019-05-09T05:34:33.107Z,99.90
2019-05-09T05:35:32.689Z,99.90
2019-05-09T05:36:12.835Z,99.90
2019-05-09T05:36:50.517Z,99.90
2019-05-09T05:37:29.999Z,99.90
2019-05-09T05:38:08.589Z,99.90
2019-05-09T05:38:47.999Z,99.90
2019-05-09T05:39:25.577Z,99.90
2019-05-09T05:40:02.821Z,99.90
2019-05-09T05:40:45.096Z,99.90
2019-05-09T05:41:19.728Z,99.90
2019-05-09T05:41:57.742Z,99.90
2019-05-09T05:42:42.118Z,99.90
2019-05-09T05:43:19.869Z,99.90
2019-05-09T05:44:00.194Z,99.90
2019-05-09T05:44:38.555Z,99.90
2019-05-09T05:45:18.169Z,99.90
2019-05-09T05:46:13.544Z,99.90
2019-05-09T05:46:58.594Z,99.90
2019-05-09T05:47:57.702Z,99.90
2019-05-09T05:48:35.310Z,99.90
2019-05-09T05:49:12.533Z,99.90
2019-05-09T05:49:49.889Z,99.90
2019-05-09T05:50:28.086Z,99.90
2019-05-09T05:51:08.108Z,99.90
2019-05-09T05:51:51.757Z,99.90
2019-05-09T05:52:28.544Z,99.90
2019-05-09T05:53:07.972Z,99.90
2019-05-09T05:53:44.788Z,99.90
2019-05-09T05:54:22.057Z,99.90
2019-05-09T05:54:59.241Z,99.90
2019-05-09T05:55:37.926Z,99.90
2019-05-09T05:56:17.108Z,99.90
2019-05-09T05:56:54.441Z,99.90
2019-05-09T05:57:34.320Z,99.90
2019-05-09T05:58:11.959Z,99.90
2019-05-09T05:58:49.455Z,99.90
2019-05-09T05:59:28.571Z,99.90
2019-05-09T06:00:07.863Z,99.90
2019-05-09T06:00:48.116Z,99.90
2019-05-09T06:01:27.846Z,99.90
2019-05-09T06:02:05.093Z,99.90
2019-05-09T06:02:42.631Z,99.90
2019-05-09T06:03:19.886Z,99.90
2019-05-09T06:03:58.646Z,99.90
2019-05-09T06:04:38.653Z,99.90
2019-05-09T06:05:18.914Z,99.90
2019-05-09T06:05:59.007Z,99.90
2019-05-09T06:06:37.480Z,99.90
2019-05-09T06:07:14.845Z,99.90
2019-05-09T06:07:53.484Z,99.90
2019-05-09T06:08:32.601Z,99.90
2019-05-09T06:09:12.565Z,99.90
2019-05-09T06:09:50.043Z,99.90
2019-05-09T06:10:29.475Z,99.90
2019-05-09T06:11:11.419Z,99.90
2019-05-09T06:11:48.229Z,99.90
2019-05-09T06:12:24.553Z,99.90
2019-05-09T06:13:02.145Z,99.90
2019-05-09T06:13:53.231Z,99.90
2019-05-09T06:14:18.630Z,99.90
2019-05-09T06:14:58.187Z,99.90
2019-05-09T06:15:37.947Z,99.90
2019-05-09T06:16:14.953Z,99.90
2019-05-09T06:16:52.325Z,99.90
2019-05-09T06:17:30.055Z,99.90
2019-05-09T06:18:08.066Z,99.90
2019-05-09T06:18:47.437Z,99.90
2019-05-09T06:19:24.817Z,99.90
2019-05-09T06:20:01.607Z,99.90
2019-05-09T06:20:38.869Z,99.90
2019-05-09T06:21:17.741Z,99.90
2019-05-09T06:21:57.401Z,99.90
2019-05-09T06:22:34.795Z,99.90
2019-05-09T06:23:12.029Z,99.90
2019-05-09T06:23:49.216Z,99.90
2019-05-09T06:24:29.338Z,99.90
2019-05-09T06:25:09.747Z,99.90
2019-05-09T06:25:48.432Z,99.90
2019-05-09T06:26:28.886Z,99.90
2019-05-09T06:27:09.830Z,99.90
2019-05-09T06:27:48.091Z,99.90
2019-05-09T06:28:24.369Z,99.90
2019-05-09T06:29:01.217Z,99.90
2019-05-09T06:29:39.589Z,99.90
2019-05-09T06:30:28.119Z,99.90
2019-05-09T06:31:07.534Z,99.90
2019-05-09T06:31:48.465Z,99.90
2019-05-09T06:32:27.996Z,99.90
2019-05-09T06:33:08.715Z,99.90
2019-05-09T06:33:47.327Z,99.90
2019-05-09T06:34:24.017Z,99.90
2019-05-09T06:35:01.169Z,99.90
2019-05-09T06:35:38.673Z,99.90
2019-05-09T06:36:15.823Z,99.90
2019-05-09T06:36:53.301Z,99.90
2019-05-09T06:37:30.659Z,99.90
2019-05-09T06:38:08.358Z,99.90
2019-05-09T06:38:46.034Z,99.90
2019-05-09T06:39:25.377Z,99.90
2019-05-09T06:40:04.859Z,99.90
2019-05-09T06:40:42.553Z,99.90
2019-05-09T06:41:22.788Z,99.90
2019-05-09T06:42:00.753Z,99.90
2019-05-09T06:42:38.253Z,99.90
2019-05-09T06:43:24.674Z,99.90
2019-05-09T06:44:16.383Z,99.90
2019-05-09T06:45:00.329Z,99.90
2019-05-09T06:45:45.770Z,99.90
2019-05-09T06:46:44.662Z,99.90
2019-05-09T06:47:31.561Z,99.90
2019-05-09T06:48:09.071Z,99.90
2019-05-09T06:48:49.065Z,99.90
2019-05-09T06:49:31.954Z,99.90
2019-05-09T06:50:11.501Z,99.90
2019-05-09T06:51:07.776Z,99.90
2019-05-09T06:51:47.513Z,99.90
2019-05-09T06:52:24.456Z,99.90
2019-05-09T06:53:04.349Z,99.90
2019-05-09T06:53:41.522Z,99.90
2019-05-09T06:54:27.873Z,99.90
2019-05-09T06:55:08.352Z,99.90
2019-05-09T06:56:03.798Z,99.90
2019-05-09T06:56:42.565Z,99.90
2019-05-09T06:57:19.778Z,99.90
2019-05-09T06:58:01.070Z,99.90
2019-05-09T06:58:38.490Z,99.90
2019-05-09T06:59:19.847Z,99.90
2019-05-09T06:59:57.938Z,99.90
2019-05-09T07:00:49.979Z,99.90
2019-05-09T07:01:54.900Z,99.90
2019-05-09T07:02:47.724Z,99.90
2019-05-09T07:03:25.421Z,99.90
2019-05-09T07:04:09.146Z,99.90
2019-05-09T07:04:48.886Z,99.90
2019-05-09T07:05:30.734Z,99.90
2019-05-09T07:06:21.727Z,99.90
2019-05-09T07:07:07.979Z,99.90
2019-05-09T07:08:08.199Z,99.90
2019-05-09T07:08:49.037Z,99.90
2019-05-09T07:09:30.279Z,99.90
2019-05-09T07:10:08.290Z,99.90
2019-05-09T07:10:45.649Z,99.90
2019-05-09T07:11:24.554Z,99.90
2019-05-09T07:12:02.330Z,99.90
2019-05-09T07:12:39.512Z,99.90
2019-05-09T07:13:17.790Z,99.90
2019-05-09T07:14:32.612Z,99.90
2019-05-09T07:15:09.138Z,99.90
2019-05-09T07:15:48.169Z,99.90
2019-05-09T07:16:27.694Z,99.90
2019-05-09T07:17:05.036Z,99.90
2019-05-09T07:17:44.241Z,99.90
2019-05-09T07:18:23.984Z,99.90
2019-05-09T07:19:01.465Z,99.90
2019-05-09T07:19:38.984Z,99.90
2019-05-09T07:20:18.293Z,99.90
2019-05-09T07:20:57.515Z,99.90
2019-05-09T07:21:57.797Z,99.90
2019-05-09T07:22:40.500Z,99.90
2019-05-09T07:23:17.857Z,99.90
2019-05-09T07:23:54.945Z,99.90
2019-05-09T07:24:34.171Z,99.90
2019-05-09T07:25:31.227Z,99.90
2019-05-09T07:26:20.149Z,99.90
2019-05-09T07:26:58.331Z,99.90
2019-05-09T07:27:35.998Z,99.90
2019-05-09T07:28:13.530Z,99.90
2019-05-09T07:28:51.392Z,99.90
2019-05-09T07:29:29.487Z,99.90
2019-05-09T07:30:17.990Z,99.90
2019-05-09T07:31:19.573Z,99.90
2019-05-09T07:32:02.269Z,99.90
2019-05-09T07:32:45.627Z,99.90
2019-05-09T07:33:58.703Z,99.90
2019-05-09T07:34:40.584Z,99.90
2019-05-09T07:35:18.744Z,99.90
2019-05-09T07:35:58.097Z,99.90
2019-05-09T07:36:34.840Z,99.90
2019-05-09T07:37:12.485Z,99.90
2019-05-09T07:37:49.717Z,99.90
2019-05-09T07:38:31.219Z,99.90
2019-05-09T07:39:09.124Z,99.90
2019-05-09T07:39:48.449Z,99.90
2019-05-09T07:40:30.154Z,99.90
2019-05-09T07:41:04.972Z,99.90
2019-05-09T07:41:43.876Z,99.90
2019-05-09T07:42:21.690Z,99.90
2019-05-09T07:42:59.502Z,99.90
2019-05-09T07:43:38.486Z,99.90
2019-05-09T07:44:18.281Z,99.90
2019-05-09T07:44:58.892Z,99.90
2019-05-09T07:45:35.297Z,99.90
2019-05-09T07:46:23.050Z,99.90
2019-05-09T07:47:07.324Z,99.90
2019-05-09T07:47:44.049Z,99.90
2019-05-09T07:48:21.767Z,99.90
2019-05-09T07:49:00.031Z,99.90
2019-05-09T07:49:37.778Z,99.90
2019-05-09T07:50:15.361Z,99.90
2019-05-09T07:50:59.564Z,99.90
2019-05-09T07:51:37.341Z,99.90
2019-05-09T07:52:15.107Z,99.90
2019-05-09T07:52:52.216Z,99.90
2019-05-09T07:53:29.809Z,99.90
2019-05-09T07:54:20.610Z,99.90
2019-05-09T07:54:48.354Z,99.90
2019-05-09T07:55:27.458Z,99.90
2019-05-09T07:56:04.580Z,99.90
2019-05-09T07:56:42.298Z,99.90
2019-05-09T07:57:22.270Z,99.90
2019-05-09T07:57:59.562Z,99.90
2019-05-09T07:58:37.707Z,99.90
2019-05-09T07:59:15.378Z,99.90
2019-05-09T07:59:52.846Z,99.90
2019-05-09T08:00:33.997Z,99.90
2019-05-09T08:01:11.840Z,99.90
2019-05-09T08:01:49.318Z,99.90
2019-05-09T08:02:28.584Z,99.90
2019-05-09T08:03:10.291Z,99.90
2019-05-09T08:03:49.033Z,99.90
2019-05-09T08:04:28.416Z,99.90
2019-05-09T08:05:05.055Z,99.90
2019-05-09T08:05:42.601Z,99.90
2019-05-09T08:06:19.911Z,99.90
2019-05-09T08:06:58.561Z,99.90
2019-05-09T08:07:38.156Z,99.90
2019-05-09T08:08:18.614Z,99.90
2019-05-09T08:08:58.359Z,99.90
2019-05-09T08:09:38.662Z,99.90
2019-05-09T08:10:14.820Z,99.90
2019-05-09T08:10:51.657Z,99.90
2019-05-09T08:11:32.208Z,99.90
2019-05-09T08:12:11.242Z,99.90
2019-05-09T08:12:48.842Z,99.90
2019-05-09T08:13:28.971Z,99.90
2019-05-09T08:14:10.461Z,99.90
2019-05-09T08:14:45.152Z,99.90
2019-05-09T08:15:22.429Z,99.90
2019-05-09T08:15:59.771Z,99.90
2019-05-09T08:16:38.131Z,99.90
2019-05-09T08:17:17.980Z,99.90
2019-05-09T08:17:54.830Z,99.90
2019-05-09T08:18:32.398Z,99.90
2019-05-09T08:19:09.860Z,99.90
2019-05-09T08:19:50.270Z,99.90
2019-05-09T08:20:28.146Z,99.90
2019-05-09T08:21:05.629Z,99.90
2019-05-09T08:21:43.171Z,99.90
2019-05-09T08:22:25.609Z,99.90
2019-05-09T08:23:02.061Z,99.90
2019-05-09T08:23:40.230Z,99.90
2019-05-09T08:24:18.319Z,99.90
2019-05-09T08:24:57.768Z,99.90
2019-05-09T08:25:38.054Z,99.90
2019-05-09T08:26:14.646Z,99.90
2019-05-09T08:26:52.346Z,99.90
2019-05-09T08:27:30.321Z,99.90
2019-05-09T08:28:09.140Z,99.90
2019-05-09T08:28:49.296Z,99.90
2019-05-09T08:29:29.300Z,99.90
2019-05-09T08:30:07.913Z,99.90
2019-05-09T08:30:48.249Z,99.90
2019-05-09T08:31:24.830Z,99.90
2019-05-09T08:32:02.755Z,99.90
2019-05-09T08:32:40.688Z,99.90
2019-05-09T08:33:18.463Z,99.90
2019-05-09T08:33:59.016Z,99.90
2019-05-09T08:34:38.199Z,99.90
2019-05-09T08:35:18.430Z,99.90
2019-05-09T08:35:58.333Z,99.90
2019-05-09T08:36:38.422Z,99.90